createdAt,value
2022-12-06T00:01:28.822Z,1.78
2022-12-06T00:03:57.951Z,1.72
2022-12-06T00:06:27.621Z,1.74
2022-12-06T00:08:55.123Z,1.77
2022-12-06T00:11:30.501Z,1.73
2022-12-06T00:14:00.742Z,1.72
2022-12-06T00:16:28.049Z,1.73
2022-12-06T00:18:54.948Z,1.84
2022-12-06T00:21:30.620Z,1.81
2022-12-06T00:24:06.787Z,1.86
2022-12-06T00:26:36.640Z,1.73
2022-12-06T00:29:03.946Z,1.64
2022-12-06T00:31:31.492Z,1.60
2022-12-06T00:33:59.166Z,1.64
2022-12-06T00:36:28.941Z,1.66
2022-12-06T00:38:55.834Z,1.65
2022-12-06T00:41:23.406Z,1.71
2022-12-06T00:43:51.136Z,1.71
2022-12-06T00:46:22.116Z,1.68
2022-12-06T00:48:51.053Z,1.65
2022-12-06T00:51:19.387Z,1.65
2022-12-06T00:53:46.816Z,1.74
2022-12-06T00:56:13.721Z,1.85
2022-12-06T00:58:40.887Z,1.71
2022-12-06T01:01:17.988Z,1.69
2022-12-06T01:03:46.112Z,1.76
2022-12-06T01:06:15.464Z,1.83
2022-12-06T01:08:43.214Z,1.96
2022-12-06T01:11:10.615Z,1.78
2022-12-06T01:13:37.432Z,1.71
2022-12-06T01:16:09.659Z,1.66
2022-12-06T01:18:36.869Z,1.66
2022-12-06T01:21:11.176Z,1.82
2022-12-06T01:23:38.153Z,1.77
2022-12-06T01:26:06.207Z,1.88
2022-12-06T01:28:33.450Z,1.84
2022-12-06T01:31:00.821Z,1.83
2022-12-06T01:33:28.123Z,1.81
2022-12-06T01:35:54.956Z,1.70
2022-12-06T01:38:21.606Z,1.85
2022-12-06T01:40:48.790Z,1.83
2022-12-06T01:43:32.771Z,1.81
2022-12-06T01:46:07.102Z,1.91
2022-12-06T01:48:35.058Z,1.92
2022-12-06T01:51:02.906Z,1.82
2022-12-06T01:53:32.221Z,1.77
2022-12-06T01:55:58.759Z,1.71
2022-12-06T01:58:29.721Z,1.82
2022-12-06T02:00:56.252Z,1.66
2022-12-06T02:03:25.765Z,1.81
2022-12-06T02:05:52.257Z,1.82
2022-12-06T02:08:20.711Z,1.82
2022-12-06T02:10:47.449Z,1.77
2022-12-06T02:13:14.512Z,1.71
2022-12-06T02:15:55.038Z,1.82
2022-12-06T02:18:38.002Z,1.79
2022-12-06T02:21:27.621Z,1.82
2022-12-06T02:24:42.759Z,1.95
2022-12-06T02:27:27.861Z,2.08
2022-12-06T02:30:10.912Z,1.96
2022-12-06T02:32:55.279Z,1.77
2022-12-06T02:35:33.757Z,1.82
2022-12-06T02:38:12.812Z,1.96
2022-12-06T02:40:44.724Z,1.84
2022-12-06T02:43:17.164Z,1.76
2022-12-06T02:45:50.209Z,1.73
2022-12-06T02:48:20.809Z,1.83
2022-12-06T02:50:52.974Z,1.83
2022-12-06T02:53:22.155Z,1.86
2022-12-06T02:55:50.103Z,1.86
2022-12-06T02:58:16.927Z,1.92
2022-12-06T03:00:50.812Z,1.83
2022-12-06T03:03:36.173Z,1.82
2022-12-06T03:06:02.657Z,1.79
2022-12-06T03:08:43.085Z,1.91
2022-12-06T03:11:10.769Z,1.89
2022-12-06T03:13:48.002Z,1.94
2022-12-06T03:16:27.421Z,2.03
2022-12-06T03:19:08.083Z,2.08
2022-12-06T03:21:43.117Z,2.01
2022-12-06T03:24:13.578Z,1.98
2022-12-06T03:26:43.366Z,1.98
2022-12-06T03:29:13.536Z,1.88
2022-12-06T03:31:41.666Z,1.97
2022-12-06T03:34:19.707Z,1.99
2022-12-06T03:36:49.007Z,2.01
2022-12-06T03:39:25.333Z,2.00
2022-12-06T03:41:56.994Z,2.11
2022-12-06T03:44:24.683Z,2.01
2022-12-06T03:46:56.758Z,1.97
2022-12-06T03:49:33.583Z,1.98
2022-12-06T03:52:00.094Z,2.00
2022-12-06T03:54:26.992Z,1.96
2022-12-06T03:56:53.990Z,1.98
2022-12-06T03:59:20.422Z,1.94
2022-12-06T04:01:46.983Z,1.91
2022-12-06T04:04:13.614Z,2.00
2022-12-06T04:06:40.428Z,2.02
2022-12-06T04:09:25.682Z,2.10
2022-12-06T04:11:52.472Z,2.09
2022-12-06T04:14:18.995Z,2.08
2022-12-06T04:17:04.308Z,1.99
2022-12-06T04:19:30.782Z,1.94
2022-12-06T04:22:16.525Z,2.03
2022-12-06T04:24:43.596Z,1.97
2022-12-06T04:27:29.730Z,1.95
2022-12-06T04:30:15.176Z,1.90
2022-12-06T04:33:00.774Z,1.95
2022-12-06T04:35:45.568Z,2.00
2022-12-06T04:38:31.369Z,2.08
2022-12-06T04:40:57.803Z,2.01
2022-12-06T04:43:42.602Z,2.03
2022-12-06T04:46:14.487Z,2.22
2022-12-06T04:48:41.785Z,2.12
2022-12-06T04:51:12.861Z,2.09
2022-12-06T04:53:39.403Z,2.07
2022-12-06T04:56:06.087Z,2.07
2022-12-06T04:58:32.492Z,2.15
2022-12-06T05:00:59.036Z,2.16
2022-12-06T05:03:25.651Z,2.25
2022-12-06T05:05:52.341Z,2.17
2022-12-06T05:08:19.082Z,2.29
2022-12-06T05:10:50.369Z,2.29
2022-12-06T05:13:18.264Z,2.22
2022-12-06T05:16:02.839Z,2.23
2022-12-06T05:18:29.429Z,2.19
2022-12-06T05:21:15.475Z,2.33
2022-12-06T05:23:42.843Z,2.29
2022-12-06T05:26:20.637Z,2.26
2022-12-06T05:28:47.455Z,2.36
2022-12-06T05:31:14.249Z,2.38
2022-12-06T05:33:41.379Z,2.45
2022-12-06T05:36:10.117Z,2.36
2022-12-06T05:38:36.908Z,2.48
2022-12-06T05:41:04.395Z,2.46
2022-12-06T05:43:33.646Z,2.45
2022-12-06T05:46:00.877Z,2.40
2022-12-06T05:48:27.679Z,2.35
2022-12-06T05:50:54.396Z,2.30
2022-12-06T05:53:22.567Z,2.30
2022-12-06T05:55:49.692Z,2.38
2022-12-06T05:58:16.821Z,2.35
2022-12-06T06:00:47.334Z,2.42
2022-12-06T06:03:15.708Z,2.42
2022-12-06T06:05:50.534Z,2.46
2022-12-06T06:08:18.307Z,2.44
2022-12-06T06:10:45.316Z,2.47
2022-12-06T06:13:12.150Z,2.49
2022-12-06T06:15:38.813Z,2.57
2022-12-06T06:18:05.532Z,2.53
2022-12-06T06:20:32.431Z,2.51
2022-12-06T06:22:59.019Z,2.48
2022-12-06T06:25:26.036Z,2.51
2022-12-06T06:27:53.022Z,2.50
2022-12-06T06:30:19.485Z,2.49
2022-12-06T06:32:45.939Z,2.34
2022-12-06T06:35:12.534Z,2.27
2022-12-06T06:37:39.051Z,2.29
2022-12-06T06:40:06.266Z,2.29
2022-12-06T06:42:34.210Z,2.31
2022-12-06T06:45:00.697Z,2.26
2022-12-06T06:47:27.301Z,2.30
2022-12-06T06:49:53.691Z,2.29
2022-12-06T06:52:20.248Z,2.29
2022-12-06T06:54:47.084Z,2.36
2022-12-06T06:57:17.679Z,2.34
2022-12-06T06:59:46.030Z,2.39
2022-12-06T07:02:17.641Z,2.42
2022-12-06T07:04:44.738Z,2.45
2022-12-06T07:07:17.732Z,2.33
2022-12-06T07:09:47.558Z,2.41
2022-12-06T07:12:14.451Z,2.48
2022-12-06T07:14:41.056Z,2.49
2022-12-06T07:17:07.870Z,2.57
2022-12-06T07:19:34.443Z,2.56
2022-12-06T07:22:00.944Z,2.54
2022-12-06T07:24:27.421Z,2.59
2022-12-06T07:26:56.674Z,2.48
2022-12-06T07:29:23.371Z,2.41
2022-12-06T07:31:49.962Z,2.48
2022-12-06T07:34:16.621Z,2.43
2022-12-06T07:36:43.346Z,2.48
2022-12-06T07:39:14.444Z,2.54
2022-12-06T07:42:00.121Z,2.54
2022-12-06T07:44:45.357Z,2.55
2022-12-06T07:47:11.981Z,2.54
2022-12-06T07:49:38.415Z,2.58
2022-12-06T07:52:04.935Z,2.63
2022-12-06T07:54:31.542Z,2.60
2022-12-06T07:56:58.080Z,2.63
2022-12-06T07:59:25.595Z,2.69
2022-12-06T08:01:52.626Z,2.70
2022-12-06T08:04:19.733Z,2.68
2022-12-06T08:06:46.309Z,2.70
2022-12-06T08:09:13.012Z,2.69
2022-12-06T08:11:39.814Z,2.72
2022-12-06T08:14:06.377Z,2.80
2022-12-06T08:16:32.872Z,2.99
2022-12-06T08:18:59.669Z,2.92
2022-12-06T08:21:26.827Z,2.96
2022-12-06T08:23:54.457Z,2.98
2022-12-06T08:26:21.114Z,2.89
2022-12-06T08:28:47.650Z,2.86
2022-12-06T08:31:20.277Z,2.87
2022-12-06T08:33:47.783Z,2.94
2022-12-06T08:36:20.095Z,2.94
2022-12-06T08:38:47.530Z,2.94
2022-12-06T08:41:32.723Z,2.85
2022-12-06T08:44:00.969Z,2.87
2022-12-06T08:46:29.186Z,2.86
2022-12-06T08:48:55.843Z,2.90
2022-12-06T08:51:22.892Z,2.82
2022-12-06T08:53:49.563Z,3.04
2022-12-06T08:56:16.144Z,3.02
2022-12-06T08:58:43.084Z,3.03
2022-12-06T09:01:15.620Z,2.98
2022-12-06T09:03:42.223Z,3.01
2022-12-06T09:06:09.770Z,2.98
2022-12-06T09:08:37.257Z,3.24
2022-12-06T09:11:05.202Z,3.28
2022-12-06T09:13:32.704Z,3.14
2022-12-06T09:15:59.077Z,3.28
2022-12-06T09:18:26.113Z,3.23
2022-12-06T09:20:52.648Z,3.26
2022-12-06T09:23:19.537Z,3.28
2022-12-06T09:25:45.979Z,3.20
2022-12-06T09:28:13.294Z,3.18
2022-12-06T09:30:39.968Z,3.18
2022-12-06T09:33:06.441Z,3.35
2022-12-06T09:35:34.590Z,3.30
2022-12-06T09:38:03.485Z,3.35
2022-12-06T09:40:43.031Z,3.25
2022-12-06T09:43:32.262Z,3.27
2022-12-06T09:46:32.325Z,3.35
2022-12-06T09:49:22.779Z,3.35
2022-12-06T09:52:33.583Z,3.37
2022-12-06T09:55:29.159Z,3.36
2022-12-06T09:58:23.299Z,3.46
2022-12-06T10:01:07.357Z,3.38
2022-12-06T10:03:39.162Z,3.46
2022-12-06T10:06:14.505Z,3.46
2022-12-06T10:09:05.580Z,3.36
2022-12-06T10:11:47.248Z,3.45
2022-12-06T10:14:45.168Z,3.51
2022-12-06T10:17:30.259Z,3.65
2022-12-06T10:20:23.327Z,3.67
2022-12-06T10:23:08.495Z,3.70
2022-12-06T10:26:04.148Z,3.66
2022-12-06T10:28:41.082Z,3.61
2022-12-06T10:31:46.007Z,3.65
2022-12-06T10:34:31.987Z,3.73
2022-12-06T10:37:13.057Z,3.63
2022-12-06T10:40:03.968Z,3.60
2022-12-06T10:42:43.005Z,3.69
2022-12-06T10:45:50.098Z,3.74
2022-12-06T10:48:41.395Z,3.71
2022-12-06T10:51:12.807Z,3.75
2022-12-06T10:53:48.005Z,3.76
2022-12-06T10:56:22.974Z,3.78
2022-12-06T10:59:04.457Z,3.80
2022-12-06T11:01:41.491Z,3.88
2022-12-06T11:04:13.976Z,3.95
2022-12-06T11:06:51.473Z,3.94
2022-12-06T11:09:33.842Z,3.88
2022-12-06T11:12:00.869Z,3.90
2022-12-06T11:14:38.129Z,4.03
2022-12-06T11:17:14.695Z,4.02
2022-12-06T11:19:50.860Z,4.01
2022-12-06T11:22:36.933Z,3.99
2022-12-06T11:25:32.390Z,4.17
2022-12-06T11:28:28.339Z,4.04
2022-12-06T11:30:56.757Z,3.97
2022-12-06T11:33:30.890Z,3.98
2022-12-06T11:36:01.088Z,3.95
2022-12-06T11:38:28.502Z,4.06
2022-12-06T11:40:55.334Z,4.10
2022-12-06T11:43:29.516Z,4.00
2022-12-06T11:45:56.797Z,4.01
2022-12-06T11:48:26.942Z,4.08
2022-12-06T11:50:54.374Z,4.06
2022-12-06T11:53:33.923Z,4.20
2022-12-06T11:56:06.295Z,4.26
2022-12-06T11:58:52.365Z,4.23
2022-12-06T12:01:18.750Z,4.17
2022-12-06T12:03:47.371Z,4.32
2022-12-06T12:06:26.270Z,4.21
2022-12-06T12:09:17.596Z,4.13
2022-12-06T12:11:44.138Z,4.06
2022-12-06T12:14:18.303Z,4.03
2022-12-06T12:16:53.121Z,4.09
2022-12-06T12:19:44.999Z,4.05
2022-12-06T12:22:27.875Z,4.00
2022-12-06T12:25:18.395Z,4.03
2022-12-06T12:27:49.778Z,4.24
2022-12-06T12:30:35.239Z,4.19
2022-12-06T12:33:07.348Z,4.21
2022-12-06T12:35:40.397Z,4.23
2022-12-06T12:38:10.461Z,4.24
2022-12-06T12:40:37.028Z,4.41
2022-12-06T12:43:12.787Z,4.21
2022-12-06T12:46:02.671Z,4.18
2022-12-06T12:48:30.375Z,4.24
2022-12-06T12:51:06.975Z,4.30
2022-12-06T12:53:40.391Z,4.41
2022-12-06T12:56:09.828Z,4.52
2022-12-06T12:58:36.892Z,4.46
2022-12-06T13:01:22.376Z,4.53
2022-12-06T13:03:51.924Z,4.69
2022-12-06T13:06:34.969Z,4.65
2022-12-06T13:09:04.153Z,4.63
2022-12-06T13:11:34.870Z,4.57
2022-12-06T13:14:03.117Z,4.67
2022-12-06T13:16:35.232Z,4.59
2022-12-06T13:19:02.267Z,4.71
2022-12-06T13:21:36.281Z,4.69
2022-12-06T13:24:06.395Z,4.63
2022-12-06T13:26:37.175Z,4.63
2022-12-06T13:29:19.712Z,4.58
2022-12-06T13:31:50.598Z,4.60
2022-12-06T13:34:37.387Z,4.52
2022-12-06T13:37:24.501Z,4.60
2022-12-06T13:39:51.313Z,4.58
2022-12-06T13:42:39.819Z,4.63
2022-12-06T13:45:45.797Z,4.52
2022-12-06T13:48:24.440Z,4.45
2022-12-06T13:50:55.680Z,4.48
2022-12-06T13:53:27.771Z,4.45
2022-12-06T13:56:00.877Z,4.45
2022-12-06T13:58:27.323Z,4.48
2022-12-06T14:00:56.423Z,4.45
2022-12-06T14:03:25.920Z,4.60
2022-12-06T14:08:33.607Z,4.43
2022-12-06T14:11:12.467Z,4.48
2022-12-06T14:13:39.998Z,4.43
2022-12-06T14:16:08.550Z,4.46
2022-12-06T14:18:39.717Z,4.54
2022-12-06T14:21:06.137Z,4.47
2022-12-06T14:23:45.022Z,4.53
2022-12-06T14:26:30.484Z,4.48
2022-12-06T14:28:58.420Z,4.47
2022-12-06T14:31:38.845Z,4.42
2022-12-06T14:34:05.322Z,4.43
2022-12-06T14:36:35.147Z,4.53
2022-12-06T14:39:15.881Z,4.42
2022-12-06T14:42:10.612Z,4.31
2022-12-06T14:44:37.774Z,4.36
2022-12-06T14:47:04.822Z,4.30
2022-12-06T14:49:52.860Z,4.28
2022-12-06T14:52:28.825Z,4.27
2022-12-06T14:55:18.635Z,4.27
2022-12-06T14:57:51.066Z,4.30
2022-12-06T15:00:27.447Z,4.24
2022-12-06T15:03:22.276Z,4.20
2022-12-06T15:05:52.760Z,4.26
2022-12-06T15:08:25.558Z,4.36
2022-12-06T15:11:10.526Z,4.43
2022-12-06T15:13:37.553Z,4.44
2022-12-06T15:16:07.453Z,4.35
2022-12-06T15:18:58.688Z,4.37
2022-12-06T15:21:25.023Z,4.42
2022-12-06T15:23:55.832Z,4.32
2022-12-06T15:26:24.033Z,4.31
2022-12-06T15:28:51.756Z,4.34
2022-12-06T15:31:27.083Z,4.23
2022-12-06T15:33:54.644Z,4.21
2022-12-06T15:36:26.723Z,4.17
2022-12-06T15:38:53.426Z,4.21
2022-12-06T15:41:23.005Z,4.24
2022-12-06T15:43:51.516Z,4.18
2022-12-06T15:46:23.825Z,4.16
2022-12-06T15:48:53.597Z,4.10
2022-12-06T15:51:24.730Z,4.17
2022-12-06T15:53:52.498Z,4.12
2022-12-06T15:56:22.391Z,4.13
2022-12-06T15:58:50.061Z,4.10
2022-12-06T16:01:22.135Z,4.06
2022-12-06T16:03:50.547Z,4.02
2022-12-06T16:06:19.217Z,4.08
2022-12-06T16:08:46.933Z,4.01
2022-12-06T16:11:17.289Z,4.02
2022-12-06T16:13:44.450Z,4.08
2022-12-06T16:16:13.448Z,4.00
2022-12-06T16:18:40.237Z,3.98
2022-12-06T16:21:07.154Z,3.88
2022-12-06T16:26:42.363Z,3.83
2022-12-06T16:29:13.906Z,3.83
2022-12-06T16:31:41.146Z,3.79
2022-12-06T16:34:08.393Z,3.78
2022-12-06T16:36:54.003Z,3.84
2022-12-06T16:39:20.635Z,3.85
2022-12-06T16:41:47.068Z,3.84
2022-12-06T16:44:13.626Z,3.84
2022-12-06T16:46:42.424Z,3.84
2022-12-06T16:49:45.867Z,3.84
2022-12-06T16:52:14.386Z,3.84
2022-12-06T16:54:41.974Z,3.85
2022-12-06T16:57:11.075Z,3.86
2022-12-06T16:59:37.570Z,3.84
2022-12-06T17:02:09.974Z,3.82
2022-12-06T17:04:39.479Z,3.81
2022-12-06T17:07:05.985Z,3.78
2022-12-06T17:09:32.500Z,3.71
2022-12-06T17:12:07.461Z,3.63
2022-12-06T17:14:35.834Z,3.68
2022-12-06T17:17:04.061Z,3.72
2022-12-06T17:19:33.026Z,3.69
2022-12-06T17:22:02.058Z,3.71
2022-12-06T17:24:29.027Z,3.68
2022-12-06T17:26:55.858Z,3.71
2022-12-06T17:29:23.801Z,3.73
2022-12-06T17:31:51.794Z,3.71
2022-12-06T17:34:19.880Z,3.74
2022-12-06T17:36:48.388Z,3.77
2022-12-06T17:39:18.210Z,3.74
2022-12-06T17:42:04.658Z,3.87
2022-12-06T17:44:31.337Z,3.74
2022-12-06T17:46:57.792Z,3.71
2022-12-06T17:49:26.376Z,3.78
2022-12-06T17:51:53.690Z,3.74
2022-12-06T17:54:20.768Z,3.83
2022-12-06T17:56:52.660Z,3.95
2022-12-06T17:59:25.868Z,3.73
2022-12-06T18:04:39.877Z,3.65
2022-12-06T18:07:06.466Z,3.68
2022-12-06T18:09:33.001Z,3.73
2022-12-06T18:12:01.020Z,3.68
2022-12-06T18:14:27.647Z,3.65
2022-12-06T18:16:54.352Z,3.56
2022-12-06T18:19:21.794Z,3.53
2022-12-06T18:21:49.239Z,3.59
2022-12-06T18:24:22.637Z,3.60
2022-12-06T18:26:51.506Z,3.42
2022-12-06T18:29:20.894Z,3.58
2022-12-06T18:31:48.069Z,3.58
2022-12-06T18:34:15.154Z,3.61
2022-12-06T18:36:42.418Z,3.54
2022-12-06T18:39:14.839Z,3.50
2022-12-06T18:41:43.664Z,3.41
2022-12-06T18:44:10.989Z,3.39
2022-12-06T18:46:38.789Z,3.38
2022-12-06T18:49:06.400Z,3.35
2022-12-06T18:51:35.309Z,3.39
2022-12-06T18:54:04.534Z,3.35
2022-12-06T18:56:33.100Z,3.36
2022-12-06T18:59:01.409Z,3.36
2022-12-06T19:01:31.124Z,3.38
2022-12-06T19:04:00.571Z,3.28
2022-12-06T19:06:29.831Z,3.19
2022-12-06T19:09:03.233Z,3.21
2022-12-06T19:11:29.700Z,3.14
2022-12-06T19:14:57.947Z,3.13
2022-12-06T19:18:13.612Z,2.97
2022-12-06T19:20:40.316Z,3.10
2022-12-06T19:23:07.087Z,3.03
2022-12-06T19:25:33.594Z,3.10
2022-12-06T19:28:02.634Z,3.03
2022-12-06T19:30:29.535Z,3.11
2022-12-06T19:32:56.520Z,3.15
2022-12-06T19:35:44.676Z,3.11
2022-12-06T19:38:44.795Z,3.01
2022-12-06T19:41:22.295Z,3.17
2022-12-06T19:44:15.658Z,3.22
2022-12-06T19:46:48.462Z,3.46
2022-12-06T19:49:20.465Z,3.47
2022-12-06T19:51:48.498Z,3.52
2022-12-06T19:54:18.465Z,3.30
2022-12-06T19:56:45.204Z,3.44
2022-12-06T19:59:12.005Z,3.58
2022-12-06T20:01:40.548Z,3.46
2022-12-06T20:04:07.508Z,3.24
2022-12-06T20:06:35.272Z,3.21
2022-12-06T20:09:02.747Z,3.13
2022-12-06T20:11:47.772Z,3.23
2022-12-06T20:14:16.893Z,3.49
2022-12-06T20:16:44.428Z,3.34
2022-12-06T20:19:12.818Z,3.19
2022-12-06T20:21:39.397Z,3.35
2022-12-06T20:24:06.227Z,3.34
2022-12-06T20:26:33.678Z,3.37
2022-12-06T20:29:01.464Z,3.32
2022-12-06T20:31:29.967Z,3.24
2022-12-06T20:33:59.217Z,3.50
2022-12-06T20:36:27.466Z,3.37
2022-12-06T20:38:55.385Z,3.36
2022-12-06T20:41:25.478Z,3.42
2022-12-06T20:43:53.441Z,3.23
2022-12-06T20:46:37.133Z,3.18
2022-12-06T20:50:15.733Z,3.05
2022-12-06T20:53:00.728Z,3.02
2022-12-06T20:55:49.585Z,3.07
2022-12-06T20:58:43.620Z,3.05
2022-12-06T21:01:23.594Z,3.15
2022-12-06T21:03:52.079Z,3.28
2022-12-06T21:06:20.613Z,3.19
2022-12-06T21:08:47.538Z,3.15
2022-12-06T21:11:23.575Z,3.23
2022-12-06T21:13:55.525Z,3.32
2022-12-06T21:16:30.942Z,3.26
2022-12-06T21:19:04.631Z,3.20
2022-12-06T21:21:34.397Z,3.22
2022-12-06T21:24:03.848Z,3.25
2022-12-06T21:26:31.386Z,3.44
2022-12-06T21:28:58.292Z,3.49
2022-12-06T21:31:34.633Z,3.51
2022-12-06T21:34:01.634Z,3.54
2022-12-06T21:36:28.905Z,3.43
2022-12-06T21:38:56.113Z,3.64
2022-12-06T21:41:23.112Z,3.67
2022-12-06T21:43:50.278Z,3.63
2022-12-06T21:46:19.630Z,3.66
2022-12-06T21:48:51.369Z,3.52
2022-12-06T21:51:18.410Z,3.38
2022-12-06T21:53:45.491Z,3.29
2022-12-06T21:56:16.835Z,3.39
2022-12-06T21:58:43.968Z,3.39
2022-12-06T22:01:16.022Z,3.56
2022-12-06T22:03:42.682Z,3.40
2022-12-06T22:06:13.203Z,3.34
2022-12-06T22:08:42.247Z,3.46
2022-12-06T22:11:10.925Z,3.43
2022-12-06T22:13:37.714Z,3.25
2022-12-06T22:16:06.459Z,3.37
2022-12-06T22:18:36.104Z,3.37
2022-12-06T22:21:07.266Z,3.41
2022-12-06T22:23:33.780Z,3.28
2022-12-06T22:26:04.684Z,3.43
2022-12-06T22:28:31.851Z,3.48
2022-12-06T22:31:33.176Z,3.56
2022-12-06T22:34:01.286Z,3.44
2022-12-06T22:36:29.127Z,3.39
2022-12-06T22:38:58.012Z,3.36
2022-12-06T22:41:25.528Z,3.47
2022-12-06T22:43:54.566Z,3.50
2022-12-06T22:46:21.721Z,3.44
2022-12-06T22:48:49.339Z,3.43
2022-12-06T22:51:16.904Z,3.34
2022-12-06T22:53:45.791Z,3.37
2022-12-06T22:56:13.280Z,3.45
2022-12-06T22:58:40.039Z,3.42
2022-12-06T23:01:15.953Z,3.52
2022-12-06T23:03:45.141Z,3.62
2022-12-06T23:06:13.081Z,3.52
2022-12-06T23:08:40.923Z,3.53
2022-12-06T23:11:11.495Z,3.58
2022-12-06T23:13:38.418Z,3.43
2022-12-06T23:16:07.886Z,3.39
2022-12-06T23:18:34.853Z,3.43
2022-12-06T23:21:07.323Z,3.50
2022-12-06T23:23:35.265Z,3.39
2022-12-06T23:26:08.030Z,3.43
2022-12-06T23:28:35.255Z,3.47
2022-12-06T23:31:14.561Z,3.59
2022-12-06T23:33:41.859Z,3.52
2022-12-06T23:36:14.043Z,3.46
2022-12-06T23:38:41.424Z,3.31
2022-12-06T23:41:11.454Z,3.28
2022-12-06T23:43:38.822Z,3.37
2022-12-06T23:46:07.953Z,3.42
2022-12-06T23:48:35.840Z,3.35
2022-12-06T23:51:03.619Z,3.36
2022-12-06T23:53:31.535Z,3.39
2022-12-06T23:56:04.813Z,3.47
2022-12-06T23:58:31.543Z,3.47
